Time;durP1;ratioP1;P1;durP2;ratioP2;P2;SDS_P1;SDS_P2;PMS_P1;PMS_P2;Temp;Humidity;BMP_temperature;BMP_pressure;BME280_temperature;BME280_humidity;BME280_pressure;Samples;Min_cycle;Max_cycle;Signal;HPM_P1;HPM_P2
2021/06/22 00:00:48;;;;;;;1.30;1.20;;;;;;;21.93;59.96;98323.03;5107062;27;43147;-77
2021/06/22 00:03:15;;;;;;;1.53;1.43;;;;;;;21.88;60.32;98324.41;5081183;28;38862;-76
2021/06/22 00:05:44;;;;;;;1.20;1.10;;;;;;;21.86;60.16;98333.72;5110588;28;41927;-79
2021/06/22 00:08:13;;;;;;;1.43;1.33;;;;;;;21.83;59.92;98340.28;5109773;28;41194;-77
2021/06/22 00:10:45;;;;;;;1.53;1.43;;;;;;;21.75;60.64;98326.88;5111643;27;42304;-78
2021/06/22 00:13:13;;;;;;;1.80;1.70;;;;;;;21.70;61.59;98329.25;5093080;28;38959;-76
2021/06/22 00:15:41;;;;;;;1.20;1.20;;;;;;;21.62;61.54;98323.09;5093344;28;41335;-74
2021/06/22 00:18:09;;;;;;;1.40;1.30;;;;;;;21.51;62.29;98318.97;5110491;27;42803;-80
2021/06/22 00:20:37;;;;;;;1.60;1.50;;;;;;;21.39;62.51;98325.75;5090178;28;41275;-77
2021/06/22 00:23:06;;;;;;;1.23;1.13;;;;;;;21.16;62.61;98321.13;5106730;28;40037;-76
2021/06/22 00:25:34;;;;;;;1.30;1.20;;;;;;;21.17;62.31;98336.25;5091671;28;41453;-80
2021/06/22 00:28:01;;;;;;;1.70;1.60;;;;;;;21.08;62.47;98323.88;5094989;28;42674;-76
2021/06/22 00:30:29;;;;;;;1.50;1.40;;;;;;;21.01;63.12;98325.59;5111273;27;42286;-79
2021/06/22 00:32:56;;;;;;;1.13;1.13;;;;;;;20.92;63.61;98323.91;5109191;28;40164;-76
2021/06/22 00:35:24;;;;;;;1.27;1.27;;;;;;;20.83;63.25;98329.50;5111282;27;41645;-78
2021/06/22 00:37:52;;;;;;;1.40;1.30;;;;;;;20.80;63.03;98333.38;5109279;28;42890;-80
2021/06/22 00:40:21;;;;;;;0.90;0.90;;;;;;;20.66;63.96;98315.25;5109121;28;41941;-82
2021/06/22 00:42:48;;;;;;;1.50;1.40;;;;;;;20.73;63.54;98332.41;5107361;28;40379;-80
2021/06/22 00:45:27;;;;;;;1.30;1.20;;;;;;;20.72;63.79;98325.34;5107624;28;41679;-78
2021/06/22 00:47:58;;;;;;;1.57;1.47;;;;;;;20.71;63.93;98310.22;5109982;27;42823;-80
2021/06/22 00:50:27;;;;;;;1.50;1.40;;;;;;;20.71;63.45;98310.22;5087267;28;40900;-77
2021/06/22 00:53:02;;;;;;;1.60;1.40;;;;;;;20.68;63.80;98305.16;5104789;28;39848;-81
2021/06/22 00:55:32;;;;;;;1.47;1.37;;;;;;;20.71;63.67;98310.22;5089928;28;20257;-79
2021/06/22 00:58:03;;;;;;;1.33;1.23;;;;;;;20.68;63.42;98305.16;5102575;28;42706;-76
2021/06/22 01:00:31;;;;;;;1.30;1.20;;;;;;;20.68;63.17;98294.41;5122596;27;42185;-80
2021/06/22 01:03:01;;;;;;;1.47;1.37;;;;;;;20.69;63.19;98290.69;5123608;27;39848;-77
2021/06/22 01:05:36;;;;;;;1.60;1.50;;;;;;;20.67;63.37;98281.97;5109316;28;41694;-76
2021/06/22 01:08:05;;;;;;;1.13;1.03;;;;;;;20.71;63.11;98288.69;5109301;28;42501;-76
2021/06/22 01:10:34;;;;;;;1.30;1.20;;;;;;;20.71;63.02;98291.38;5108175;28;42820;-80
2021/06/22 01:13:01;;;;;;;1.50;1.40;;;;;;;20.69;63.05;98296.94;5108725;28;38913;-84
2021/06/22 01:15:32;;;;;;;1.10;1.10;;;;;;;20.66;63.09;98315.25;5090659;28;41434;-79
2021/06/22 01:18:07;;;;;;;1.57;1.47;;;;;;;20.60;62.96;98338.34;5110678;27;43312;-77
2021/06/22 01:21:00;;;;;;;1.30;1.20;;;;;;;20.56;62.83;98349.59;5093958;28;42210;-80
2021/06/22 01:23:37;;;;;;;0.90;0.90;;;;;;;20.52;62.97;98338.38;5110222;28;40944;-83
2021/06/22 01:26:05;;;;;;;1.10;1.03;;;;;;;20.37;62.80;98322.06;5109235;28;41851;-74
2021/06/22 01:28:35;;;;;;;1.77;1.27;;;;;;;20.41;62.99;98336.84;5097723;28;43529;-77
2021/06/22 01:31:14;;;;;;;1.20;1.10;;;;;;;20.35;63.28;98332.16;5086366;28;43054;-80
2021/06/22 01:33:47;;;;;;;1.20;1.10;;;;;;;20.32;63.35;98337.84;5089445;28;40010;-77
2021/06/22 01:36:20;;;;;;;1.53;1.43;;;;;;;20.26;63.63;98329.63;5104081;28;41641;-78
2021/06/22 01:38:48;;;;;;;1.30;1.20;;;;;;;20.26;63.35;98343.91;5088641;28;42760;-79
2021/06/22 01:41:17;;;;;;;1.97;1.30;;;;;;;20.26;63.40;98346.59;5121662;27;42278;-77
2021/06/22 01:43:45;;;;;;;1.30;1.20;;;;;;;20.23;63.53;98330.78;5110276;27;40821;-78
2021/06/22 01:46:13;;;;;;;0.80;0.80;;;;;;;20.26;63.35;98337.69;5108837;28;41683;-79
2021/06/22 01:48:42;;;;;;;1.30;1.20;;;;;;;20.27;63.37;98337.53;5092115;28;42606;-77
2021/06/22 01:51:10;;;;;;;1.10;1.10;;;;;;;20.28;63.26;98335.66;5108793;28;42363;-78
2021/06/22 01:53:39;;;;;;;1.23;1.20;;;;;;;20.27;63.55;98324.06;5096717;28;40340;-79
2021/06/22 01:56:12;;;;;;;1.30;1.20;;;;;;;20.26;63.36;98314.31;5088459;28;40597;-76
2021/06/22 01:58:45;;;;;;;1.50;1.40;;;;;;;20.20;63.59;98317.69;5102984;28;42811;-77
2021/06/22 02:01:45;;;;;;;0.83;0.83;;;;;;;20.11;63.86;98324.09;5072072;28;42894;-78
2021/06/22 02:04:23;;;;;;;1.40;1.30;;;;;;;20.05;63.76;98320.22;5105443;28;41055;-81
2021/06/22 02:06:51;;;;;;;1.50;1.37;;;;;;;20.00;63.51;98327.13;5107755;27;42427;-77
2021/06/22 02:09:38;;;;;;;0.80;0.80;;;;;;;19.93;63.86;98331.47;5108931;27;42728;-81
2021/06/22 02:12:09;;;;;;;0.93;0.90;;;;;;;19.89;64.18;98332.81;5107905;28;42934;-77
2021/06/22 02:14:38;;;;;;;0.80;0.80;;;;;;;19.83;63.72;98336.16;5108944;28;41946;-81
2021/06/22 02:17:06;;;;;;;0.90;0.90;;;;;;;19.78;63.95;98333.16;5105909;28;41388;-79
2021/06/22 02:19:34;;;;;;;1.07;0.97;;;;;;;19.72;64.10;98329.28;5108573;28;41882;-80
2021/06/22 02:22:08;;;;;;;0.73;0.73;;;;;;;19.68;64.52;98326.06;5091303;28;40953;-77
2021/06/22 02:24:47;;;;;;;1.43;1.23;;;;;;;19.62;64.75;98329.44;5088047;28;39179;-74
2021/06/22 02:27:22;;;;;;;0.93;0.93;;;;;;;19.59;65.10;98335.13;5088835;28;41773;-78
2021/06/22 02:29:52;;;;;;;0.90;0.90;;;;;;;19.53;64.58;98341.19;5087603;28;43462;-77
2021/06/22 02:32:21;;;;;;;1.13;1.03;;;;;;;19.47;64.92;98346.31;5083294;28;41124;-79
2021/06/22 02:34:50;;;;;;;1.17;1.07;;;;;;;19.18;64.59;98314.53;5091642;28;39193;-79
2021/06/22 02:37:18;;;;;;;0.87;0.87;;;;;;;19.35;64.39;98348.47;5108372;28;41311;-78
2021/06/22 02:39:49;;;;;;;0.90;0.90;;;;;;;19.18;64.86;98320.72;5086737;28;41661;-77
2021/06/22 02:42:17;;;;;;;0.83;0.83;;;;;;;19.28;64.75;98350.16;5103069;28;42924;-73
2021/06/22 02:44:45;;;;;;;1.27;1.17;;;;;;;19.25;65.07;98347.78;5088642;28;40331;-77
2021/06/22 02:47:13;;;;;;;1.10;1.00;;;;;;;19.23;65.01;98360.53;5104641;27;42523;-76
2021/06/22 02:49:41;;;;;;;0.90;0.90;;;;;;;19.20;65.84;98356.31;5087976;28;42862;-78
2021/06/22 02:52:09;;;;;;;0.80;0.80;;;;;;;19.16;65.48;98354.13;5099168;28;42304;-76
2021/06/22 02:54:38;;;;;;;1.40;1.23;;;;;;;19.12;66.27;98353.59;5091023;28;38930;-78
2021/06/22 02:57:09;;;;;;;0.80;0.80;;;;;;;19.09;66.03;98353.91;5106759;28;42339;-76
2021/06/22 02:59:39;;;;;;;0.50;0.50;;;;;;;19.07;66.05;98361.28;5108686;28;42690;-79
2021/06/22 03:02:08;;;;;;;1.20;1.10;;;;;;;19.03;65.92;98370.69;5107005;28;42589;-77
2021/06/22 03:04:37;;;;;;;1.63;0.87;;;;;;;18.99;65.63;98369.31;5107597;28;41397;-80
2021/06/22 03:07:06;;;;;;;0.70;0.70;;;;;;;18.98;65.42;98373.84;5107519;27;41724;-78
2021/06/22 03:09:35;;;;;;;0.70;0.70;;;;;;;18.96;65.47;98383.88;5107844;27;43274;-78
2021/06/22 03:12:06;;;;;;;0.70;0.67;;;;;;;18.87;65.25;98376.81;5111769;28;42192;-76
2021/06/22 03:14:55;;;;;;;0.77;0.77;;;;;;;18.88;65.74;98391.06;5104979;27;39710;-80
2021/06/22 03:17:30;;;;;;;1.20;0.97;;;;;;;18.83;65.43;98396.91;5091850;28;41847;-76
2021/06/22 03:19:59;;;;;;;1.67;1.00;;;;;;;18.59;66.05;98368.09;5091402;28;43300;-77
2021/06/22 03:22:28;;;;;;;0.90;0.80;;;;;;;18.74;66.03;98410.44;5087524;28;41316;-78
2021/06/22 03:24:56;;;;;;;1.10;1.00;;;;;;;18.70;65.89;98414.41;5111234;28;40664;-80
2021/06/22 03:27:24;;;;;;;0.63;0.60;;;;;;;18.66;65.98;98419.28;5110590;28;42433;-79
2021/06/22 03:30:30;;;;;;;0.70;0.70;;;;;;;18.60;66.29;98415.38;5090094;28;41627;-79
2021/06/22 03:32:58;;;;;;;1.03;0.70;;;;;;;18.60;66.92;98411.84;5091536;28;41672;-74
2021/06/22 03:35:28;;;;;;;0.83;0.80;;;;;;;18.57;66.92;98407.59;5073898;28;39289;-78
2021/06/22 03:37:56;;;;;;;0.80;0.80;;;;;;;18.56;66.40;98413.13;5121834;27;42236;-79
2021/06/22 03:40:24;;;;;;;0.60;0.60;;;;;;;18.51;67.74;98413.59;5111370;28;42845;-77
2021/06/22 03:42:53;;;;;;;0.80;0.80;;;;;;;18.50;67.73;98408.41;5111032;28;41184;-76
2021/06/22 03:45:22;;;;;;;0.80;0.70;;;;;;;18.51;67.48;98410.06;5107344;28;39692;-80
2021/06/22 03:47:53;;;;;;;0.90;0.90;;;;;;;18.55;67.75;98414.09;5091616;28;41480;-77
2021/06/22 03:50:23;;;;;;;0.90;0.73;;;;;;;18.57;67.70;98417.47;5091207;28;42742;-76
2021/06/22 03:52:51;;;;;;;0.53;0.53;;;;;;;18.50;67.66;98400.34;5108355;28;41354;-74
2021/06/22 03:55:27;;;;;;;1.20;1.03;;;;;;;18.66;67.81;98411.22;5122976;27;41354;-75
2021/06/22 03:58:13;;;;;;;0.73;0.73;;;;;;;18.72;67.34;98413.25;5123445;27;41525;-77
2021/06/22 04:00:53;;;;;;;0.87;0.77;;;;;;;18.82;66.90;98416.69;5101484;28;43017;-74
2021/06/22 04:03:28;;;;;;;0.83;0.70;;;;;;;18.92;66.68;98416.56;5100519;28;43185;-75
2021/06/22 04:06:17;;;;;;;1.23;0.93;;;;;;;19.04;66.27;98420.66;5100493;28;38648;-74
2021/06/22 04:08:47;;;;;;;1.57;0.93;;;;;;;19.10;66.16;98424.56;5115182;28;41994;-74
2021/06/22 04:11:19;;;;;;;0.80;0.80;;;;;;;19.16;65.69;98423.94;5105002;28;41863;-76
2021/06/22 04:13:47;;;;;;;0.57;0.57;;;;;;;19.23;65.70;98424.94;5121644;28;42943;-74
2021/06/22 04:16:15;;;;;;;0.60;0.60;;;;;;;19.26;65.85;98430.84;5109239;28;39947;-80
2021/06/22 04:18:47;;;;;;;1.13;0.90;;;;;;;19.31;65.60;98430.34;5094283;28;41984;-78
2021/06/22 04:21:19;;;;;;;0.40;0.37;;;;;;;19.29;65.56;98435.88;5095459;28;43020;-74
2021/06/22 04:23:49;;;;;;;0.63;0.63;;;;;;;19.30;65.08;98437.56;5111008;28;42058;-75
2021/06/22 04:26:18;;;;;;;0.57;0.57;;;;;;;19.35;64.96;98445.16;5094745;28;38570;-79
2021/06/22 04:28:46;;;;;;;0.93;0.80;;;;;;;19.42;65.10;98439.94;5093934;28;41581;-74
2021/06/22 04:31:14;;;;;;;0.70;0.53;;;;;;;19.42;65.09;98434.59;5094162;28;42382;-80
2021/06/22 04:33:42;;;;;;;0.60;0.53;;;;;;;19.41;64.51;98439.09;5112112;28;42308;-81
2021/06/22 04:36:11;;;;;;;1.13;1.03;;;;;;;19.46;64.42;98442.16;5109064;28;40481;-83
2021/06/22 04:38:38;;;;;;;0.40;0.40;;;;;;;19.25;64.14;98391.56;5093616;28;40158;-75
2021/06/22 04:41:06;;;;;;;0.50;0.40;;;;;;;19.62;64.18;98428.84;5109165;28;43423;-78
2021/06/22 04:43:34;;;;;;;0.60;0.60;;;;;;;19.67;63.69;98422.94;5110321;28;42195;-81
2021/06/22 04:46:02;;;;;;;0.50;0.50;;;;;;;19.70;64.16;98420.78;5109861;28;41336;-80
2021/06/22 04:48:29;;;;;;;0.60;0.60;;;;;;;19.67;63.95;98417.56;5093520;28;41835;-76
2021/06/22 04:50:58;;;;;;;0.73;0.73;;;;;;;19.64;64.13;98424.16;5109324;28;42259;-79
2021/06/22 04:53:27;;;;;;;0.50;0.50;;;;;;;19.61;63.58;98418.25;5109774;28;41977;-75
2021/06/22 04:55:55;;;;;;;0.60;0.60;;;;;;;19.60;64.15;98412.03;5109379;28;39904;-78
2021/06/22 04:58:23;;;;;;;0.47;0.47;;;;;;;19.40;63.83;98361.44;5108620;28;41230;-76
2021/06/22 05:00:50;;;;;;;0.50;0.50;;;;;;;19.78;63.27;98403.81;5109782;28;42432;-78
2021/06/22 05:03:18;;;;;;;0.50;0.50;;;;;;;19.91;63.18;98420.31;5110970;27;42197;-75
2021/06/22 05:05:45;;;;;;;0.40;0.33;;;;;;;20.03;63.23;98412.78;5110799;27;40677;-73
2021/06/22 05:08:13;;;;;;;0.70;0.60;;;;;;;20.30;62.58;98427.75;5110474;27;41774;-79
2021/06/22 05:10:42;;;;;;;0.80;0.80;;;;;;;20.27;61.96;98431.66;5110881;27;43330;-77
2021/06/22 05:13:10;;;;;;;0.67;0.47;;;;;;;20.52;61.67;98439.75;5109880;28;43210;-74
2021/06/22 05:15:37;;;;;;;0.43;0.43;;;;;;;20.69;60.84;98446.78;5110181;27;39775;-82
2021/06/22 05:18:05;;;;;;;0.40;0.40;;;;;;;20.85;60.63;98446.75;5108954;28;41922;-79
2021/06/22 05:20:33;;;;;;;0.60;0.60;;;;;;;21.03;59.88;98444.69;5092758;28;42654;-77
2021/06/22 05:23:00;;;;;;;0.50;0.50;;;;;;;21.14;59.12;98436.25;5122473;27;42291;-84
2021/06/22 05:25:28;;;;;;;0.50;0.50;;;;;;;21.28;58.90;98448.19;5145920;27;40207;-81
2021/06/22 05:27:57;;;;;;;0.47;0.47;;;;;;;21.44;58.95;98448.13;5145144;27;42376;-81
2021/06/22 05:30:25;;;;;;;0.53;0.33;;;;;;;21.58;58.71;98446.56;5127625;27;42077;-77
2021/06/22 05:32:53;;;;;;;0.80;0.80;;;;;;;21.81;57.73;98465.50;5128433;27;42452;-78
2021/06/22 05:35:20;;;;;;;0.30;0.30;;;;;;;22.00;56.57;98467.78;5144347;27;40060;-78
2021/06/22 05:37:48;;;;;;;2.57;2.03;;;;;;;22.13;56.34;98459.91;5127499;27;42765;-80
2021/06/22 05:40:16;;;;;;;0.57;0.57;;;;;;;22.23;56.75;98465.09;5128605;27;42416;-77
2021/06/22 05:42:44;;;;;;;0.30;0.30;;;;;;;22.32;56.17;98460.47;5112297;27;42281;-80
2021/06/22 05:45:13;;;;;;;0.30;0.30;;;;;;;22.39;56.26;98475.75;5109698;27;39258;-78
2021/06/22 05:47:41;;;;;;;0.40;0.40;;;;;;;22.37;55.89;98460.78;5108725;28;41778;-78
2021/06/22 05:50:11;;;;;;;0.40;0.40;;;;;;;22.36;56.49;98468.06;5108518;27;43541;-76
2021/06/22 05:52:39;;;;;;;0.50;0.50;;;;;;;22.51;55.78;98468.91;5106074;28;42270;-83
2021/06/22 05:55:16;;;;;;;1.23;1.13;;;;;;;22.94;54.72;98469.25;5108261;27;40071;-78
2021/06/22 05:57:46;;;;;;;0.40;0.30;;;;;;;23.50;52.90;98480.47;5108812;28;41308;-77
2021/06/22 06:00:17;;;;;;;0.50;0.50;;;;;;;24.02;51.37;98493.03;5108219;28;42380;-82
2021/06/22 06:02:45;;;;;;;0.90;0.37;;;;;;;24.23;50.67;98472.28;5110205;27;42107;-80
2021/06/22 06:05:13;;;;;;;0.30;0.30;;;;;;;24.42;50.61;98476.22;5086702;28;38920;-83
2021/06/22 06:07:41;;;;;;;0.30;0.30;;;;;;;24.49;50.54;98477.13;5108639;28;42286;-76
2021/06/22 06:10:10;;;;;;;0.97;0.90;;;;;;;24.41;50.40;98469.13;5108116;28;42520;-79
2021/06/22 06:12:39;;;;;;;0.77;0.77;;;;;;;24.33;50.86;98482.81;5105526;28;42986;-84
2021/06/22 06:15:08;;;;;;;0.37;0.37;;;;;;;24.17;50.85;98483.00;5108767;27;40443;-81
2021/06/22 06:17:37;;;;;;;0.23;0.23;;;;;;;24.11;51.90;98489.19;5109566;27;41404;-82
2021/06/22 06:20:08;;;;;;;0.40;0.40;;;;;;;24.03;51.95;98482.00;5107397;27;42406;-84
2021/06/22 06:22:37;;;;;;;0.30;0.30;;;;;;;23.99;52.03;98486.13;5108795;27;42938;-82
2021/06/22 06:25:05;;;;;;;0.70;0.70;;;;;;;23.96;51.83;98487.38;5092236;28;40089;-82
2021/06/22 06:27:42;;;;;;;0.70;0.50;;;;;;;23.89;51.44;98478.31;5109433;28;41555;-81
2021/06/22 06:30:12;;;;;;;0.40;0.40;;;;;;;24.08;51.47;98494.97;5107427;28;43231;-81
2021/06/22 06:32:41;;;;;;;0.60;0.60;;;;;;;24.13;51.20;98487.13;5107565;28;42285;-76
2021/06/22 06:35:10;;;;;;;0.37;0.37;;;;;;;24.17;51.11;98500.09;5108137;28;38828;-80
2021/06/22 06:37:38;;;;;;;0.30;0.30;;;;;;;24.22;50.81;98502.22;5107949;28;41650;-73
2021/06/22 06:40:07;;;;;;;0.30;0.30;;;;;;;24.28;51.23;98501.47;5107506;28;42246;-76
2021/06/22 06:42:35;;;;;;;0.50;0.50;;;;;;;24.27;51.43;98499.81;5108596;27;41851;-78
2021/06/22 06:45:03;;;;;;;0.57;0.57;;;;;;;24.28;51.46;98506.88;5111342;27;39576;-75
2021/06/22 06:47:31;;;;;;;3.50;2.20;;;;;;;24.38;51.26;98507.41;5110562;28;42598;-75
2021/06/22 06:50:00;;;;;;;0.60;0.60;;;;;;;24.69;50.22;98505.25;5112553;27;42316;-75
2021/06/22 06:52:27;;;;;;;0.70;0.50;;;;;;;25.05;51.11;98496.19;5111131;28;45259;-77
2021/06/22 06:54:55;;;;;;;0.50;0.50;;;;;;;25.42;49.66;98500.41;5111120;28;39712;-80
2021/06/22 06:57:23;;;;;;;0.60;0.60;;;;;;;25.72;49.41;98506.44;5111241;28;41340;-78
2021/06/22 06:59:50;;;;;;;0.90;0.50;;;;;;;25.84;48.17;98504.84;5113362;27;43417;-81
2021/06/22 07:02:18;;;;;;;0.40;0.40;;;;;;;25.94;47.83;98521.59;5111316;28;42285;-76
2021/06/22 07:04:46;;;;;;;0.57;0.40;;;;;;;26.04;48.37;98522.06;5113038;27;39984;-78
2021/06/22 07:07:15;;;;;;;0.47;0.47;;;;;;;26.27;47.53;98523.59;5112261;27;42062;-76
2021/06/22 07:09:42;;;;;;;0.40;0.40;;;;;;;26.81;47.09;98528.97;5111203;28;43584;-73
2021/06/22 07:12:10;;;;;;;0.30;0.30;;;;;;;27.49;45.99;98527.72;5111912;27;42009;-77
2021/06/22 07:14:38;;;;;;;0.30;0.30;;;;;;;27.50;45.41;98532.13;5111654;28;39991;-79
2021/06/22 07:17:05;;;;;;;0.57;0.57;;;;;;;27.50;45.22;98529.41;5093704;28;41926;-82
2021/06/22 07:19:33;;;;;;;0.40;0.40;;;;;;;27.68;45.48;98528.78;5111995;28;42856;-77
2021/06/22 07:22:00;;;;;;;0.40;0.40;;;;;;;27.79;44.59;98505.50;5111919;27;43015;-80
2021/06/22 07:24:30;;;;;;;0.50;0.50;;;;;;;27.90;44.53;98510.28;5110179;28;41046;-77
2021/06/22 07:26:57;;;;;;;0.43;0.43;;;;;;;28.09;44.54;98525.69;5110906;28;42335;-75
2021/06/22 07:29:25;;;;;;;0.60;0.60;;;;;;;28.14;43.54;98531.34;5110965;27;42609;-76
2021/06/22 07:31:52;;;;;;;0.43;0.43;;;;;;;28.79;42.57;98540.25;5109656;28;42248;-78
2021/06/22 07:34:20;;;;;;;0.50;0.50;;;;;;;29.67;41.59;98543.69;5109247;28;39991;-76
2021/06/22 07:36:48;;;;;;;0.50;0.50;;;;;;;30.34;40.55;98552.00;5110391;28;41724;-79
2021/06/22 07:39:15;;;;;;;0.50;0.50;;;;;;;30.78;38.54;98561.75;5111514;27;42294;-82
2021/06/22 07:41:45;;;;;;;0.33;0.33;;;;;;;31.46;37.88;98563.19;5110143;28;43002;-75
2021/06/22 07:44:13;;;;;;;0.93;0.80;;;;;;;31.66;37.52;98564.53;5110745;28;40693;-83
2021/06/22 07:46:40;;;;;;;0.60;0.60;;;;;;;32.57;36.07;98576.66;5112191;27;41412;-80
2021/06/22 07:49:09;;;;;;;0.67;0.67;;;;;;;34.16;34.00;98579.91;5109978;28;42765;-82
2021/06/22 07:51:36;;;;;;;0.63;0.63;;;;;;;35.85;31.78;98591.63;5111379;27;42163;-82
2021/06/22 07:54:05;;;;;;;0.70;0.70;;;;;;;37.45;28.94;98597.19;5108836;28;40357;-78
2021/06/22 07:56:32;;;;;;;0.80;0.80;;;;;;;38.64;26.60;98603.88;5110740;27;41280;-91
2021/06/22 07:59:01;;;;;;;0.50;0.50;;;;;;;39.38;25.81;98608.41;5110754;27;42698;-76
2021/06/22 08:01:29;;;;;;;0.77;0.70;;;;;;;39.74;25.88;98608.13;5111394;27;42688;-78
2021/06/22 08:03:56;;;;;;;0.83;0.83;;;;;;;39.58;25.02;98620.47;5111200;27;40930;-77
2021/06/22 08:06:25;;;;;;;1.00;1.00;;;;;;;39.19;25.46;98613.00;5110236;27;41340;-74
2021/06/22 08:08:53;;;;;;;0.50;0.50;;;;;;;37.82;27.96;98596.91;5109509;28;43628;-77
2021/06/22 08:11:20;;;;;;;0.97;0.97;;;;;;;36.39;28.91;98575.66;5109583;28;41205;-76
2021/06/22 08:13:48;;;;;;;2.37;2.17;;;;;;;34.92;30.19;98574.53;5110808;27;39932;-79
2021/06/22 08:16:17;;;;;;;1.33;1.23;;;;;;;33.88;32.36;98572.66;5108296;28;42491;-74
2021/06/22 08:18:45;;;;;;;0.77;0.60;;;;;;;32.95;33.42;98572.47;5109205;28;42471;-80
2021/06/22 08:21:13;;;;;;;0.67;0.67;;;;;;;32.28;34.93;98556.59;5109641;28;42184;-88
2021/06/22 08:23:40;;;;;;;0.67;0.67;;;;;;;31.82;36.36;98549.28;5130318;27;39711;-87
2021/06/22 08:26:08;;;;;;;0.63;0.63;;;;;;;31.44;37.15;98547.00;5130569;27;41727;-82
2021/06/22 08:28:36;;;;;;;0.80;0.80;;;;;;;31.05;37.32;98519.22;5100832;28;41788;-79
2021/06/22 08:31:04;;;;;;;0.73;0.70;;;;;;;30.86;38.52;98542.25;5110992;28;41030;-84
2021/06/22 08:33:33;;;;;;;0.70;0.70;;;;;;;30.81;38.94;98535.81;5110597;28;38885;-78
2021/06/22 08:36:01;;;;;;;0.60;0.60;;;;;;;31.39;38.35;98542.25;5108946;28;42403;-82
2021/06/22 08:38:28;;;;;;;0.80;0.80;;;;;;;31.43;37.18;98554.38;5109247;28;42391;-81
2021/06/22 08:40:56;;;;;;;0.63;0.63;;;;;;;31.73;37.14;98548.81;5109483;27;42399;-83
2021/06/22 08:43:24;;;;;;;1.27;1.17;;;;;;;32.71;36.07;98566.22;5111232;28;39993;-92
2021/06/22 08:45:52;;;;;;;0.80;0.80;;;;;;;33.99;33.99;98567.31;5112320;27;41409;-86
2021/06/22 08:48:19;;;;;;;0.87;0.87;;;;;;;35.56;30.83;98589.19;5109500;28;42933;-88
2021/06/22 08:50:48;;;;;;;1.10;1.00;;;;;;;35.71;29.88;98621.53;5092581;28;41203;-82
2021/06/22 08:53:16;;;;;;;1.20;1.10;;;;;;;34.91;30.92;98608.66;5109816;27;40445;-85
2021/06/22 08:55:46;;;;;;;1.50;1.40;;;;;;;34.91;31.76;98600.38;5110290;28;41596;-87
2021/06/22 08:58:15;;;;;;;0.90;0.90;;;;;;;37.15;29.95;98602.66;5092305;28;42892;-80
2021/06/22 09:00:45;;;;;;;1.00;1.00;;;;;;;39.26;27.45;98619.03;5110531;27;41843;-75
2021/06/22 09:03:14;;;;;;;0.90;0.90;;;;;;;40.01;25.50;98643.69;5110752;27;39750;-79
2021/06/22 09:05:44;;;;;;;1.33;1.07;;;;;;;39.31;26.13;98621.78;5109187;28;41733;-86
2021/06/22 09:08:23;;;;;;;0.93;0.93;;;;;;;39.54;26.11;98624.97;5090858;28;42089;-85
2021/06/22 09:10:53;;;;;;;0.70;0.70;;;;;;;40.64;24.99;98627.72;5112085;27;41929;-84
2021/06/22 09:13:23;;;;;;;0.90;0.90;;;;;;;41.90;24.18;98643.66;5107670;28;41004;-82
2021/06/22 09:15:53;;;;;;;0.90;0.90;;;;;;;42.39;23.20;98628.31;5108739;28;41664;-79
2021/06/22 09:18:29;;;;;;;1.20;1.10;;;;;;;41.58;23.81;98631.41;5108807;27;42747;-78
2021/06/22 09:20:58;;;;;;;0.98;0.98;;;;;;;42.50;23.34;98629.75;5092204;28;41185;-81
2021/06/22 09:23:29;;;;;;;1.48;1.38;;;;;;;42.83;22.63;98634.09;5107647;28;39819;-77
2021/06/22 09:25:58;;;;;;;1.48;1.38;;;;;;;42.78;21.71;98648.09;5109092;28;40749;-80
2021/06/22 09:28:28;;;;;;;1.48;1.13;;;;;;;41.95;22.31;98629.66;5109299;27;43186;-82
2021/06/22 09:30:58;;;;;;;0.70;0.70;;;;;;;41.96;22.65;98631.34;5125898;27;42190;-86
2021/06/22 09:33:31;;;;;;;1.00;1.00;;;;;;;40.43;24.69;98610.47;5125737;27;40350;-78
2021/06/22 09:36:02;;;;;;;1.10;1.00;;;;;;;40.40;24.84;98613.03;5108881;28;41644;-78
2021/06/22 09:38:34;;;;;;;1.10;1.00;;;;;;;39.55;25.45;98618.31;5110369;27;42757;-78
2021/06/22 09:41:07;;;;;;;0.90;0.90;;;;;;;39.07;27.01;98593.16;5108281;27;42257;-78
2021/06/22 09:43:39;;;;;;;1.37;1.27;;;;;;;39.38;27.04;98604.81;5108847;27;41040;-80
2021/06/22 09:46:08;;;;;;;1.40;1.30;;;;;;;38.69;26.67;98600.28;5124860;27;41757;-79
2021/06/22 09:48:58;;;;;;;0.80;0.80;;;;;;;39.64;25.53;98613.78;5109372;27;43158;-73
2021/06/22 09:51:32;;;;;;;1.00;1.00;;;;;;;39.20;25.42;98606.31;5107818;28;42035;-79
2021/06/22 09:54:14;;;;;;;1.30;1.20;;;;;;;39.39;26.36;98607.31;5108736;27;40683;-81
2021/06/22 09:56:59;;;;;;;1.30;1.20;;;;;;;38.46;26.41;98596.16;5111875;27;42396;-85
2021/06/22 09:59:29;;;;;;;1.30;1.20;;;;;;;37.63;27.55;98599.41;5112936;27;42488;-82
2021/06/22 10:02:08;;;;;;;1.37;1.30;;;;;;;38.29;27.04;98593.78;5111503;27;42054;-80
2021/06/22 10:04:36;;;;;;;1.00;0.90;;;;;;;38.06;26.99;98595.19;5110081;27;40159;-87
2021/06/22 10:07:10;;;;;;;1.20;1.20;;;;;;;37.09;28.38;98584.44;5110261;27;41748;-75
2021/06/22 10:09:40;;;;;;;1.27;1.17;;;;;;;36.87;28.48;98584.66;5087633;28;43733;-73
2021/06/22 10:12:10;;;;;;;1.33;1.30;;;;;;;35.90;29.82;98586.13;5090748;28;43125;-75
2021/06/22 10:14:41;;;;;;;1.07;1.00;;;;;;;36.13;30.95;98571.09;5090394;28;40020;-79
2021/06/22 10:17:10;;;;;;;1.20;1.13;;;;;;;36.49;30.71;98567.41;5108024;28;41360;-77
2021/06/22 10:19:38;;;;;;;1.27;1.17;;;;;;;36.94;30.01;98568.66;5095091;28;42280;-81
2021/06/22 10:22:07;;;;;;;1.60;1.50;;;;;;;37.21;29.89;98574.81;5092831;28;42684;-80
2021/06/22 10:24:38;;;;;;;1.27;1.17;;;;;;;37.09;29.81;98581.69;5110668;28;39912;-80
2021/06/22 10:27:08;;;;;;;1.53;1.43;;;;;;;36.57;30.10;98575.19;5111863;28;42366;-79
2021/06/22 10:29:36;;;;;;;1.20;1.10;;;;;;;36.61;30.90;98567.16;5112103;27;44704;-78
2021/06/22 10:32:05;;;;;;;1.00;1.00;;;;;;;36.35;31.41;98564.31;5111710;28;42191;-87
2021/06/22 10:34:33;;;;;;;1.10;1.10;;;;;;;36.19;30.93;98570.03;5111272;28;40937;-80
2021/06/22 10:37:07;;;;;;;1.30;1.20;;;;;;;35.92;30.65;98576.50;5094401;28;41806;-81
2021/06/22 10:39:39;;;;;;;1.27;1.17;;;;;;;35.63;31.44;98566.91;5111975;27;42487;-76
2021/06/22 10:42:11;;;;;;;1.00;1.00;;;;;;;35.50;32.54;98557.16;5110573;28;41469;-80
2021/06/22 10:44:44;;;;;;;1.30;1.20;;;;;;;35.39;32.89;98555.44;5095207;28;38972;-80
2021/06/22 10:47:33;;;;;;;1.20;1.10;;;;;;;35.43;32.56;98556.56;5094180;28;41713;-78
2021/06/22 10:50:32;;;;;;;1.17;1.17;;;;;;;35.62;32.64;98556.97;5107037;27;44548;-77
2021/06/22 10:53:08;;;;;;;1.30;1.20;;;;;;;35.00;32.27;98563.03;5110972;28;42880;-81
2021/06/22 10:55:56;;;;;;;1.40;1.30;;;;;;;34.34;33.22;98554.06;5095249;28;39678;-83
2021/06/22 10:58:26;;;;;;;1.50;1.40;;;;;;;34.14;33.71;98560.09;5109760;28;41623;-83
2021/06/22 11:01:13;;;;;;;1.40;1.30;;;;;;;34.01;34.55;98565.13;5111536;27;43261;-77
2021/06/22 11:03:41;;;;;;;0.87;0.87;;;;;;;33.68;35.28;98555.84;5111355;28;41179;-79
2021/06/22 11:06:26;;;;;;;1.07;1.07;;;;;;;33.21;35.25;98562.75;5110893;28;40572;-76
2021/06/22 11:08:54;;;;;;;1.03;1.00;;;;;;;32.65;35.42;98562.53;5112137;27;41413;-82
2021/06/22 11:11:24;;;;;;;1.00;1.00;;;;;;;32.25;36.55;98548.06;5093375;28;42074;-76
2021/06/22 11:13:57;;;;;;;1.13;1.03;;;;;;;31.88;36.85;98550.25;5109816;28;41933;-75
2021/06/22 11:16:28;;;;;;;0.93;0.90;;;;;;;31.59;38.15;98552.84;5111481;27;39696;-79
2021/06/22 11:19:12;;;;;;;10.73;7.10;;;;;;;31.54;38.18;98544.50;5110988;27;42505;-76
2021/06/22 11:21:56;;;;;;;3.17;2.40;;;;;;;31.72;38.36;98538.09;5110620;27;42695;-77
2021/06/22 11:24:26;;;;;;;1.20;1.10;;;;;;;31.93;38.57;98537.47;5121232;27;43440;-78
2021/06/22 11:27:00;;;;;;;0.90;0.90;;;;;;;32.04;38.93;98538.53;5128650;27;40993;-77
2021/06/22 11:29:47;;;;;;;1.20;1.10;;;;;;;32.00;37.59;98548.31;5111600;27;42080;-80
2021/06/22 11:32:35;;;;;;;1.20;1.10;;;;;;;31.90;38.01;98537.94;5110046;28;42402;-80
2021/06/22 11:35:10;;;;;;;1.30;1.20;;;;;;;31.71;37.28;98550.97;5093932;28;41288;-79
2021/06/22 11:37:40;;;;;;;0.80;0.80;;;;;;;31.48;39.12;98545.47;5111942;27;39872;-78
2021/06/22 11:40:10;;;;;;;1.00;1.00;;;;;;;31.35;38.85;98535.59;5110741;27;42045;-80
2021/06/22 11:42:40;;;;;;;0.93;0.93;;;;;;;31.35;39.03;98534.75;5093539;28;42759;-77
2021/06/22 11:45:25;;;;;;;0.83;0.83;;;;;;;31.38;39.60;98526.06;5110466;27;42762;-80
2021/06/22 11:47:58;;;;;;;0.90;0.80;;;;;;;31.29;39.21;98535.69;5110871;28;39165;-83
2021/06/22 11:50:34;;;;;;;0.90;0.90;;;;;;;31.15;40.02;98539.75;5110501;27;41539;-82